»·PEaware :: DAL414 KDEN-KLAX

DAL414 :: KDEN-KLAX

FLIGHT INFORMATION

Flight Status: Arrived
Operator:
Delta Air Lines
More flights by this operator :: More flights under this callsign
Pilot: Joshua V. (18904)
Aircraft: LOCKHEED L-1011 TRI-STAR
(L101)
More flights by this aircraft type
Origin: KDEN Denver Intl
United States
Destination: KLAX Los Angeles Intl
United States
More flights between these airports :: More routes between these airports
Route: +ROCKI5 HBU J128 PGS EED TNP SEAVU2
File this flight plan on PilotEdge
Remarks:
Altitude:
(Current/Filed)
36,000ft
Speed:
(Current/Filed)
485kts
Departed: 31-Aug-20 02:44 PM
Arrived: 31-Aug-20 04:44 PM
Distance/Time
Traveled:
748nm/2:00
Distance/Time
To Go:
Arrived

Flight Plot

Page will automatically refresh every two minutes.

Flight plan parsing failed; only flown route is shown


Map Options




Map Legend


Flown Route
Filed Route
Departure Airport
Arrival Airport
Navaid (VOR, NDB)
Fix

Horizontal Profiles

Position Reports

Time Latitude Longitude Heading Altitude Ground
Speed
31-Aug-20 14:16 39.858192 -104.675480 0 5447ft 0kts
31-Aug-20 14:17 39.858192 -104.675480 0 5447ft 0kts
31-Aug-20 14:18 39.858192 -104.675480 0 5447ft 0kts
31-Aug-20 14:19 39.858192 -104.675480 0 5447ft 0kts
31-Aug-20 14:20 39.858192 -104.675480 0 5447ft 0kts
31-Aug-20 14:21 39.858192 -104.675480 0 5447ft 0kts
31-Aug-20 14:22 39.858192 -104.675480 0 5447ft 0kts
31-Aug-20 14:23 39.858192 -104.675480 0 5447ft 0kts
31-Aug-20 14:24 39.858192 -104.675480 0 5447ft 0kts
31-Aug-20 14:25 39.858192 -104.675480 0 5447ft 0kts
31-Aug-20 14:26 39.858192 -104.675480 0 5447ft 0kts
31-Aug-20 14:27 39.857617 -104.675470 340 5447ft 2kts
31-Aug-20 14:28 39.857397 -104.674718 270 5447ft 2kts
31-Aug-20 14:29 39.857397 -104.674687 270 5447ft 0kts
31-Aug-20 14:30 39.857397 -104.674687 270 5447ft 0kts
31-Aug-20 14:31 39.857398 -104.674755 271 5447ft 2kts
31-Aug-20 14:32 39.857408 -104.676392 269 5447ft 5kts
31-Aug-20 14:33 39.857417 -104.678593 269 5447ft 7kts
31-Aug-20 14:34 39.856739 -104.681315 278 5447ft 8kts
31-Aug-20 14:35 39.856391 -104.683995 182 5447ft 7kts
31-Aug-20 14:36 39.853197 -104.684036 180 5447ft 13kts
31-Aug-20 14:37 39.850056 -104.684079 180 5447ft 9kts
31-Aug-20 14:38 39.847991 -104.684088 180 5447ft 8kts
31-Aug-20 14:39 39.844980 -104.684132 180 5447ft 13kts
31-Aug-20 14:40 39.842731 -104.684159 180 5447ft 3kts
31-Aug-20 14:41 39.841888 -104.684169 180 5447ft 2kts
31-Aug-20 14:42 39.840691 -104.684749 262 5447ft 5kts
31-Aug-20 14:43 39.840908 -104.718426 273 5659ft 174kts
31-Aug-20 14:44 39.838649 -104.781246 267 8245ft 176kts
31-Aug-20 14:45 39.838523 -104.853309 267 9926ft 219kts
31-Aug-20 14:47 39.838649 -104.944095 268 11384ft 305kts
31-Aug-20 14:48 39.837336 -105.077447 268 11285ft 365kts
31-Aug-20 14:49 39.829774 -105.198375 246 11088ft 334kts
31-Aug-20 14:50 39.764468 -105.283790 219 13430ft 338kts
31-Aug-20 14:51 39.686308 -105.355975 218 16534ft 351kts
31-Aug-20 14:52 39.612982 -105.440625 240 19291ft 359kts
31-Aug-20 14:53 39.573542 -105.561121 250 21812ft 370kts
31-Aug-20 14:54 39.538925 -105.689508 250 23843ft 383kts
31-Aug-20 14:55 39.503500 -105.821891 250 25669ft 395kts
31-Aug-20 14:56 39.466991 -105.958380 251 27220ft 405kts
31-Aug-20 14:57 39.429633 -106.097927 251 28719ft 415kts
31-Aug-20 14:58 39.386467 -106.237236 234 29997ft 425kts
31-Aug-20 14:59 39.281598 -106.309350 204 30999ft 446kts
31-Aug-20 15:00 39.173849 -106.389168 217 31969ft 449kts
31-Aug-20 15:01 39.070927 -106.482204 218 33171ft 455kts
31-Aug-20 15:02 38.966587 -106.576883 218 33886ft 461kts
31-Aug-20 15:03 38.861662 -106.671796 218 34480ft 464kts
31-Aug-20 15:04 38.757153 -106.765989 219 34976ft 448kts
31-Aug-20 15:04 38.672111 -106.842511 219 35811ft 447kts
31-Aug-20 15:05 38.569821 -106.934361 219 36135ft 454kts
31-Aug-20 15:07 38.450473 -107.045725 227 36124ft 452kts
31-Aug-20 15:07 38.387645 -107.151092 241 36123ft 445kts
31-Aug-20 15:08 38.325259 -107.286565 240 36132ft 443kts
31-Aug-20 15:09 38.256922 -107.416837 238 36128ft 434kts
31-Aug-20 15:10 38.189709 -107.543527 239 36118ft 433kts
31-Aug-20 15:11 38.122907 -107.670436 239 36155ft 433kts
31-Aug-20 15:12 38.055860 -107.797905 239 36214ft 432kts
31-Aug-20 15:13 37.989183 -107.924525 239 36251ft 432kts
31-Aug-20 15:14 37.922076 -108.051091 238 36244ft 433kts
31-Aug-20 15:15 37.854429 -108.177561 238 36214ft 433kts
31-Aug-20 15:16 37.786991 -108.303183 238 36167ft 433kts
31-Aug-20 15:17 37.719063 -108.429395 238 36114ft 433kts
31-Aug-20 15:18 37.651389 -108.554798 238 36071ft 433kts
31-Aug-20 15:19 37.583378 -108.679813 238 36039ft 433kts
31-Aug-20 15:20 37.515324 -108.804879 238 36035ft 432kts
31-Aug-20 15:21 37.446882 -108.930015 238 36034ft 433kts
31-Aug-20 15:22 37.378416 -109.054977 238 36039ft 433kts
31-Aug-20 15:23 37.310245 -109.179478 238 36042ft 433kts
31-Aug-20 15:24 37.241840 -109.304497 238 36030ft 433kts
31-Aug-20 15:25 37.173010 -109.428423 238 36031ft 433kts
31-Aug-20 15:26 37.103954 -109.552240 238 36020ft 433kts
31-Aug-20 15:27 37.034789 -109.676112 238 36012ft 432kts
31-Aug-20 15:28 36.965984 -109.798991 238 36017ft 431kts
31-Aug-20 15:29 36.897087 -109.921133 238 36027ft 430kts
31-Aug-20 15:30 36.828215 -110.043178 238 36022ft 430kts
31-Aug-20 15:31 36.759110 -110.164814 238 36012ft 429kts
31-Aug-20 15:32 36.690250 -110.286034 238 36002ft 428kts
31-Aug-20 15:33 36.621121 -110.407074 238 35992ft 427kts
31-Aug-20 15:34 36.552280 -110.527598 238 35983ft 427kts
31-Aug-20 15:35 36.483540 -110.648274 237 35974ft 427kts
31-Aug-20 15:36 36.414247 -110.768143 237 35984ft 427kts
31-Aug-20 15:37 36.344627 -110.888157 237 35990ft 428kts
31-Aug-20 15:38 36.274681 -111.008203 237 35999ft 429kts
31-Aug-20 15:39 36.205106 -111.127378 237 36011ft 429kts
31-Aug-20 15:40 36.135094 -111.248190 240 36025ft 429kts
31-Aug-20 15:41 36.094259 -111.384719 258 36052ft 424kts
31-Aug-20 15:42 36.070781 -111.527810 257 36066ft 424kts
31-Aug-20 15:43 36.041195 -111.668802 255 36099ft 424kts
31-Aug-20 15:44 36.010496 -111.808960 255 36132ft 423kts
31-Aug-20 15:45 35.980536 -111.949688 255 36143ft 423kts
31-Aug-20 15:46 35.951418 -112.087355 259 36149ft 421kts
31-Aug-20 15:47 35.929452 -112.229813 255 36158ft 423kts
31-Aug-20 15:48 35.897907 -112.369937 254 36153ft 424kts
31-Aug-20 15:49 35.865320 -112.510510 254 36146ft 425kts
31-Aug-20 15:50 35.832819 -112.650557 254 36140ft 426kts
31-Aug-20 15:51 35.800073 -112.791469 254 36128ft 428kts
31-Aug-20 15:52 35.767160 -112.933050 254 36115ft 430kts
31-Aug-20 15:53 35.734226 -113.074548 254 36088ft 431kts
31-Aug-20 15:54 35.701153 -113.216564 255 36065ft 432kts
31-Aug-20 15:55 35.667932 -113.359059 255 36035ft 434kts
31-Aug-20 15:56 35.634644 -113.501771 255 36000ft 434kts
31-Aug-20 15:57 35.601213 -113.644937 255 35961ft 435kts
31-Aug-20 15:58 35.525395 -113.755281 206 35953ft 454kts
31-Aug-20 15:59 35.416666 -113.833063 220 35951ft 453kts
31-Aug-20 16:00 35.317718 -113.927327 223 35956ft 449kts
31-Aug-20 16:01 35.220790 -114.023823 223 35951ft 450kts
31-Aug-20 16:02 35.123587 -114.120471 223 35913ft 451kts
31-Aug-20 16:03 35.026038 -114.217213 223 35838ft 451kts
31-Aug-20 16:04 34.928829 -114.313407 223 35794ft 450kts
31-Aug-20 16:05 34.831574 -114.409406 223 35764ft 450kts
31-Aug-20 16:06 34.734315 -114.505195 223 35753ft 450kts
31-Aug-20 16:07 34.636977 -114.600823 223 35751ft 450kts
31-Aug-20 16:08 34.566279 -114.719018 261 35754ft 440kts
31-Aug-20 16:09 34.551184 -114.865507 256 35755ft 437kts
31-Aug-20 16:10 34.495493 -114.996476 238 35767ft 441kts
31-Aug-20 16:11 34.451393 -115.071283 236 35774ft 444kts
31-Aug-20 16:12 34.384058 -115.196427 243 35787ft 442kts
31-Aug-20 16:13 34.326366 -115.321118 242 35801ft 437kts
31-Aug-20 16:14 34.265821 -115.448359 242 35819ft 436kts
31-Aug-20 16:15 34.205117 -115.575546 242 35836ft 436kts
31-Aug-20 16:16 34.144579 -115.702205 242 35849ft 435kts
31-Aug-20 16:17 34.090473 -115.832929 251 35851ft 433kts
31-Aug-20 16:18 34.077221 -115.975964 265 35845ft 433kts
31-Aug-20 16:19 34.060973 -116.119098 260 34945ft 426kts
31-Aug-20 16:20 34.040639 -116.259007 259 34002ft 420kts
31-Aug-20 16:21 34.020518 -116.396305 259 32588ft 413kts
31-Aug-20 16:22 34.005159 -116.533052 263 30800ft 406kts
31-Aug-20 16:23 33.993678 -116.666606 263 28206ft 396kts
31-Aug-20 16:24 33.982193 -116.797971 263 24633ft 393kts
31-Aug-20 16:25 33.970932 -116.927409 264 22118ft 384kts
31-Aug-20 16:26 33.959842 -117.054613 264 18899ft 382kts
31-Aug-20 16:27 33.948969 -117.179408 263 16888ft 349kts
31-Aug-20 16:28 33.938694 -117.296922 263 16271ft 353kts
31-Aug-20 16:29 33.932328 -117.413743 279 15074ft 349kts
31-Aug-20 16:30 33.977497 -117.510511 295 13527ft 309kts
31-Aug-20 16:31 33.982933 -117.610353 262 11361ft 301kts
31-Aug-20 16:32 33.974413 -117.709050 261 9310ft 290kts
31-Aug-20 16:33 33.964943 -117.805583 261 7646ft 290kts
31-Aug-20 16:34 33.955153 -117.900932 261 6147ft 283kts
31-Aug-20 16:35 33.962638 -117.990993 281 5209ft 245kts
31-Aug-20 16:36 33.969363 -118.070356 264 4894ft 242kts
31-Aug-20 16:37 33.962597 -118.138699 261 3998ft 193kts
31-Aug-20 16:38 33.956051 -118.202301 262 3053ft 189kts
31-Aug-20 16:39 33.949695 -118.264525 262 2072ft 184kts
31-Aug-20 16:41 33.944147 -118.318790 261 1211ft 150kts
31-Aug-20 16:42 33.939380 -118.363716 261 468ft 130kts
31-Aug-20 16:43 33.935891 -118.397414 262 142ft 48kts
31-Aug-20 16:44 33.936197 -118.403861 275 142ft 15kts
31-Aug-20 16:45 33.935925 -118.407530 265 142ft 17kts
31-Aug-20 16:46 33.937236 -118.409172 353 142ft 2kts
31-Aug-20 16:47 33.937594 -118.409262 325 142ft 5kts
31-Aug-20 16:48 33.937982 -118.411675 327 142ft 7kts
31-Aug-20 16:49 33.940891 -118.412129 352 142ft 14kts
31-Aug-20 16:50 33.945309 -118.412789 352 142ft 18kts
31-Aug-20 16:51 33.947288 -118.410613 84 142ft 13kts
31-Aug-20 16:52 33.946158 -118.409132 173 142ft 6kts
31-Aug-20 16:53 33.945453 -118.409723 261 142ft 3kts
31-Aug-20 16:54 33.945414 -118.410086 262 142ft 0kts
31-Aug-20 16:55 33.945414 -118.410086 262 142ft 0kts
31-Aug-20 16:55 33.945414 -118.410086 262 142ft 0kts
31-Aug-20 16:57 33.945414 -118.410086 262 142ft 0kts
31-Aug-20 16:58 33.945414 -118.410086 262 142ft 0kts
31-Aug-20 16:58 33.945414 -118.410086 262 142ft 0kts

Navigation Log

Ident Type
Flight plan parsing failed, navigation log unavailable